deformed-offering
Saratoga-Weather Station Historical Data
 
Daily Summary for September 20, 2020 Units:  English    Metric   Both
Daily Weekly Monthly Yearly
  Current: High: Low: Average:
Temperature: 64.5 °F 64.5 °F 56.1 °F 59.1 °F
Dew Point: 59.1 °F 60.2 °F 51.8 °F 53.8 °F
Humidity: 82.6% 93% 76% 83%
Wind Speed: 2.2mph 2.2mph 0mph 0.1mph
Wind Gust: 5mph 5mph - -
WindENE - - NE
Pressure: 29.91 in 29.92 in 29.85 in -
Precipitation: 0.00 in      
 
 
Tabular Data for September 20, 2020
Time Temperature Dew Point Pressure Wind Wind Speed Wind Gust Humidity Rainfall Rate (Hourly) solar
00:04 62.3 °F 54.6 °F 29.89 in Calm     76% 0.00 in 0 W/m2
00:09 62.2 °F 54.5 °F 29.89 in Calm     76.2% 0.00 in 0 W/m2
00:14 62.1 °F 54.4 °F 29.89 in Calm     76% 0.00 in 0 W/m2
00:19 62 °F 54.7 °F 29.89 in Calm     77% 0.00 in 0 W/m2
00:24 62 °F 54.7 °F 29.89 in Calm     77% 0.00 in 0 W/m2
00:29 61.8 °F 54.4 °F 29.89 in Calm     76.6% 0.00 in 0 W/m2
00:34 61.7 °F 54.4 °F 29.89 in Calm     77% 0.00 in 0 W/m2
00:39 61.6 °F 54.3 °F 29.89 in Calm     77% 0.00 in 0 W/m2
00:44 61.5 °F 54.2 °F 29.88 in Calm     77% 0.00 in 0 W/m2
00:49 61.4 °F 54.1 °F 29.88 in Calm     77% 0.00 in 0 W/m2
00:54 61.3 °F 54 °F 29.88 in Calm     77% 0.00 in 0 W/m2
00:59 61.3 °F 54 °F 29.88 in Calm     77% 0.00 in 0 W/m2
01:04 61.2 °F 53.9 °F 29.88 in Calm     77% 0.00 in 0 W/m2
01:09 61.2 °F 53.9 °F 29.88 in Calm     77% 0.00 in 0 W/m2
01:14 61.1 °F 53.8 °F 29.88 in Calm     77% 0.00 in 0 W/m2
01:19 61 °F 53.7 °F 29.88 in Calm     77% 0.00 in 0 W/m2
01:24 61 °F 53.7 °F 29.88 in Calm     77% 0.00 in 0 W/m2
01:29 60.9 °F 53.6 °F 29.88 in Calm     77% 0.00 in 0 W/m2
01:34 60.8 °F 53.5 °F 29.88 in Calm     77% 0.00 in 0 W/m2
01:39 60.7 °F 53.4 °F 29.87 in Calm     77% 0.00 in 0 W/m2
01:44 60.7 °F 53.4 °F 29.87 in Calm     77% 0.00 in 0 W/m2
01:49 60.7 °F 53.4 °F 29.87 in Calm     77% 0.00 in 0 W/m2
01:54 60.5 °F 53.4 °F 29.87 in Calm     77.3% 0.00 in 0 W/m2
01:59 60.5 °F 53.3 °F 29.87 in Calm     77% 0.00 in 0 W/m2
02:04 60.4 °F 53.2 °F 29.87 in Calm     77% 0.00 in 0 W/m2
02:09 60.4 °F 53.2 °F 29.87 in Calm     77% 0.00 in 0 W/m2
02:14 60.3 °F 53.1 °F 29.87 in Calm     77% 0.00 in 0 W/m2
02:19 60.2 °F 53 °F 29.87 in Calm     77% 0.00 in 0 W/m2
02:24 60.1 °F 52.9 °F 29.87 in Calm     77% 0.00 in 0 W/m2
02:29 60.1 °F 52.9 °F 29.88 in Calm     77% 0.00 in 0 W/m2
02:34 59.9 °F 52.7 °F 29.87 in Calm     77% 0.00 in 0 W/m2
02:39 59.9 °F 52.9 °F 29.87 in Calm     77.7% 0.00 in 0 W/m2
02:44 59.7 °F 52.8 °F 29.87 in Calm     78% 0.00 in 0 W/m2
02:49 59.6 °F 52.7 °F 29.87 in Calm     78% 0.00 in 0 W/m2
02:54 59.5 °F 52.6 °F 29.87 in Calm     78% 0.00 in 0 W/m2
02:59 59.5 °F 52.6 °F 29.87 in Calm     78% 0.00 in 0 W/m2
03:04 59.4 °F 52.5 °F 29.87 in Calm     78% 0.00 in 0 W/m2
03:09 59.3 °F 52.4 °F 29.87 in Calm     78% 0.00 in 0 W/m2
03:14 59.2 °F 52.3 °F 29.87 in Calm     78% 0.00 in 0 W/m2
03:19 59.2 °F 52.4 °F 29.87 in Calm     78.3% 0.00 in 0 W/m2
03:24 59.2 °F 52.7 °F 29.87 in Calm     79% 0.00 in 0 W/m2
03:29 59.1 °F 52.6 °F 29.87 in Calm     79% 0.00 in 0 W/m2
03:34 59 °F 52.5 °F 29.87 in Calm     79% 0.00 in 0 W/m2
03:39 59 °F 52.5 °F 29.87 in Calm     79% 0.00 in 0 W/m2
03:44 58.9 °F 52.4 °F 29.87 in Calm     79% 0.00 in 0 W/m2
03:49 58.9 °F 52.4 °F 29.87 in Calm     79% 0.00 in 0 W/m2
03:54 58.8 °F 52.3 °F 29.86 in Calm     79% 0.00 in 0 W/m2
03:59 58.7 °F 52.4 °F 29.86 in Calm     79.7% 0.00 in 0 W/m2
04:04 58.7 °F 52.5 °F 29.86 in Calm     80% 0.00 in 0 W/m2
04:09 58.6 °F 52.4 °F 29.86 in Calm     80% 0.00 in 0 W/m2
04:14 58.5 °F 52.3 °F 29.86 in Calm     80% 0.00 in 0 W/m2
04:19 58.4 °F 52.3 °F 29.86 in Calm     80% 0.00 in 0 W/m2
04:24 58.3 °F 52.2 °F 29.86 in Calm     80% 0.00 in 0 W/m2
04:29 58.3 °F 52.3 °F 29.86 in Calm     80.2% 0.00 in 0 W/m2
04:34 58.2 °F 52.4 °F 29.86 in Calm     81% 0.00 in 0 W/m2
04:39 58.1 °F 52.3 °F 29.85 in Calm     81% 0.00 in 0 W/m2
04:44 58 °F 52.2 °F 29.85 in Calm     81% 0.00 in 0 W/m2
04:49 58 °F 52.2 °F 29.85 in Calm     81% 0.00 in 0 W/m2
04:54 58 °F 52.2 °F 29.86 in Calm     81% 0.00 in 0 W/m2
04:59 57.9 °F 52.1 °F 29.86 in Calm     81% 0.00 in 0 W/m2
05:04 57.8 °F 52 °F 29.86 in Calm     81% 0.00 in 0 W/m2
05:09 57.6 °F 51.8 °F 29.86 in Calm     81% 0.00 in 0 W/m2
05:14 57.6 °F 52 °F 29.86 in Calm     81.7% 0.00 in 0 W/m2
05:19 57.6 °F 52.1 °F 29.86 in Calm     82% 0.00 in 0 W/m2
05:24 57.5 °F 52 °F 29.86 in Calm     82% 0.00 in 0 W/m2
05:29 57.4 °F 52 °F 29.86 in Calm     82% 0.00 in 0 W/m2
05:34 57.3 °F 52 °F 29.86 in Calm     82.5% 0.00 in 0 W/m2
05:39 57.2 °F 52.1 °F 29.87 in Calm     83% 0.00 in 0 W/m2
05:44 57.2 °F 52.1 °F 29.87 in Calm     83% 0.00 in 0 W/m2
05:49 57 °F 51.9 °F 29.87 in Calm     83% 0.00 in 0 W/m2
05:54 56.9 °F 51.8 °F 29.87 in Calm     83% 0.00 in 0 W/m2
05:59 56.9 °F 51.9 °F 29.87 in Calm     83.4% 0.00 in 0 W/m2
06:04 56.7 °F 51.9 °F 29.87 in Calm     84% 0.00 in 0 W/m2
06:09 56.7 °F 51.9 °F 29.87 in Calm     84% 0.00 in 0 W/m2
06:14 56.7 °F 51.9 °F 29.87 in Calm     84% 0.00 in 0 W/m2
06:19 56.6 °F 52 °F 29.87 in Calm     84.8% 0.00 in 0 W/m2
06:24 56.5 °F 52 °F 29.87 in Calm     85% 0.00 in 0 W/m2
06:29 56.5 °F 52 °F 29.87 in Calm     85% 0.00 in 0 W/m2
06:34 56.4 °F 52 °F 29.88 in Calm     85.3% 0.00 in 0 W/m2
06:39 56.3 °F 52.2 °F 29.88 in Calm     86% 0.00 in 0 W/m2
06:44 56.3 °F 52.2 °F 29.88 in Calm     86% 0.00 in 0 W/m2
06:49 56.3 °F 52.2 °F 29.88 in Calm     86% 0.00 in 0 W/m2
06:54 56.2 °F 52.1 °F 29.88 in Calm     86% 0.00 in 0 W/m2
06:59 56.2 °F 52.1 °F 29.88 in Calm     86% 0.00 in 0 W/m2
07:04 56.2 °F 52.1 °F 29.88 in Calm     86% 0.00 in 7 W/m2
07:09 56.2 °F 52.2 °F 29.88 in Calm     86.2% 0.00 in 11 W/m2
07:14 56.2 °F 52.4 °F 29.88 in Calm     87% 0.00 in 14 W/m2
07:19 56.1 °F 52.3 °F 29.88 in Calm     87% 0.00 in 18 W/m2
07:24 56.2 °F 52.4 °F 29.88 in Calm     87% 0.00 in 28 W/m2
07:29 56.2 °F 52.4 °F 29.89 in Calm     87% 0.00 in 63 W/m2
07:34 56.2 °F 52.7 °F 29.89 in Calm     88% 0.00 in 77 W/m2
07:39 56.2 °F 52.7 °F 29.89 in Calm     88% 0.00 in 93 W/m2
07:44 56.3 °F 52.8 °F 29.89 in Calm     88% 0.00 in 106 W/m2
07:49 56.3 °F 52.8 °F 29.89 in Calm     88% 0.00 in 118 W/m2
07:54 56.3 °F 52.8 °F 29.89 in Calm     88% 0.00 in 132 W/m2
07:59 56.4 °F 52.9 °F 29.90 in Calm     88% 0.00 in 150 W/m2
08:04 56.4 °F 52.9 °F 29.90 in Calm     88% 0.00 in 165 W/m2
08:09 56.5 °F 53 °F 29.90 in Calm     88% 0.00 in 181 W/m2
08:14 56.5 °F 53 °F 29.90 in Calm     88% 0.00 in 194 W/m2
08:19 56.7 °F 53.3 °F 29.90 in Calm     88.5% 0.00 in 208 W/m2
08:24 56.8 °F 53.7 °F 29.90 in Calm     89.2% 0.00 in 223 W/m2
08:29 57.1 °F 54.3 °F 29.90 in Calm     90.2% 0.00 in 243 W/m2
08:34 57.5 °F 54.9 °F 29.90 in Calm     91% 0.00 in 250 W/m2
08:39 58.1 °F 55.7 °F 29.90 in Calm     91.8% 0.00 in 264 W/m2
08:44 58.6 °F 56.5 °F 29.90 in Calm     92.7% 0.00 in 280 W/m2
08:49 59 °F 57 °F 29.91 in Calm     93% 0.00 in 296 W/m2
08:54 59.4 °F 57.4 °F 29.91 in NE 0.3 mph 2.3 mph 93% 0.00 in 311 W/m2
08:59 59.8 °F 57.8 °F 29.91 in NE 0.8 mph 3.5 mph 93% 0.00 in 326 W/m2
09:04 60.2 °F 58.2 °F 29.91 in NE 0.5 mph 3.5 mph 93% 0.00 in 338 W/m2
09:09 60.5 °F 58.5 °F 29.91 in NE 0.1 mph 3 mph 93% 0.00 in 350 W/m2
09:14 60.8 °F 58.8 °F 29.92 in NE 0.2 mph 2.3 mph 93% 0.00 in 366 W/m2
09:19 61.2 °F 59.1 °F 29.92 in Calm   2 mph 93% 0.00 in 380 W/m2
09:24 61.4 °F 59.2 °F 29.92 in Calm     92.2% 0.00 in 391 W/m2
09:29 61.7 °F 59.4 °F 29.92 in Calm     92% 0.00 in 403 W/m2
09:34 62 °F 59.6 °F 29.92 in NE 0.2 mph 2.3 mph 92% 0.00 in 415 W/m2
09:39 62.3 °F 59.7 °F 29.92 in ENE 0.7 mph 3.5 mph 91.3% 0.00 in 429 W/m2
09:44 62.5 °F 59.8 °F 29.91 in ENE 0.4 mph 3 mph 91% 0.00 in 442 W/m2
09:49 62.9 °F 60.1 °F 29.91 in ENE 0.5 mph 2.3 mph 91% 0.00 in 456 W/m2
09:54 63.2 °F 60.2 °F 29.91 in ENE 0.4 mph 3.5 mph 90% 0.00 in 470 W/m2
09:59 63.4 °F 60 °F 29.91 in ENE 0.5 mph 3 mph 88.7% 0.00 in 482 W/m2
10:04 63.8 °F 59.8 °F 29.91 in ENE 1.4 mph 3.5 mph 86.8% 0.00 in 494 W/m2
10:09 64.1 °F 59.5 °F 29.91 in ENE 0.3 mph 3.5 mph 85.2% 0.00 in 505 W/m2
10:14 64.5 °F 59.1 °F 29.91 in ENE 2.2 mph 5 mph 82.6% 0.00 in 517 W/m2
Saratoga, California, USA
Compliments of Weather Underground - 2 mb

WU-history PHP script courtesy of Juneau County Weather and modified for WU/TWC API use by Saratoga-weather.org

This script set is available on GitHub.

deformed-offering